Time;durP1;ratioP1;P1;durP2;ratioP2;P2;SDS_P1;SDS_P2;PMS_P1;PMS_P2;Temp;Humidity;BMP_temperature;BMP_pressure;BME280_temperature;BME280_humidity;BME280_pressure;Samples;Min_cycle;Max_cycle;Signal;HPM_P1;HPM_P2
2022/06/24 00:00:35;;;;;;;16.30;12.90;;;24.80;99.90;;;;;;5049138;28;20037;-64
2022/06/24 00:03:01;;;;;;;17.35;11.77;;;24.70;99.90;;;;;;5049942;28;20041;-65
2022/06/24 00:05:31;;;;;;;16.75;12.52;;;24.60;99.90;;;;;;5046720;28;20048;-65
2022/06/24 00:07:58;;;;;;;16.60;11.43;;;24.60;99.90;;;;;;5017785;28;20037;-64
2022/06/24 00:10:29;;;;;;;14.25;11.73;;;24.50;99.90;;;;;;5053906;28;20504;-65
2022/06/24 00:12:55;;;;;;;16.95;12.55;;;24.40;99.90;;;;;;5042679;28;20034;-64
2022/06/24 00:15:32;;;;;;;16.70;12.98;;;24.40;99.90;;;;;;5048008;28;20091;-63
2022/06/24 00:18:20;;;;;;;18.15;12.40;;;24.40;99.90;;;;;;5030381;28;20148;-63
2022/06/24 00:20:48;;;;;;;18.50;13.15;;;24.30;99.90;;;;;;5048396;28;20132;-64
2022/06/24 00:23:18;;;;;;;15.70;12.70;;;24.20;99.90;;;;;;5046682;28;20051;-64
2022/06/24 00:25:46;;;;;;;15.18;12.68;;;24.20;99.90;;;;;;5050124;28;20665;-64
2022/06/24 00:28:13;;;;;;;14.85;13.27;;;24.20;99.90;;;;;;5047663;28;20047;-64
2022/06/24 00:30:50;;;;;;;14.73;12.13;;;24.20;99.90;;;;;;5049496;28;20343;-63
2022/06/24 00:33:24;;;;;;;18.00;13.10;;;24.10;99.90;;;;;;5032318;28;20033;-65
2022/06/24 00:35:56;;;;;;;16.52;12.35;;;24.10;99.90;;;;;;5046837;28;20025;-65
2022/06/24 00:38:33;;;;;;;15.57;12.27;;;24.10;99.90;;;;;;5046917;28;20419;-63
2022/06/24 00:41:10;;;;;;;16.65;12.70;;;24.10;99.90;;;;;;5053672;28;20135;-63
2022/06/24 00:43:49;;;;;;;16.42;12.45;;;24.00;99.90;;;;;;5022215;28;20036;-63
2022/06/24 00:46:23;;;;;;;13.75;11.45;;;24.00;99.90;;;;;;5039773;28;20044;-64
2022/06/24 00:48:52;;;;;;;14.43;11.43;;;24.00;99.90;;;;;;5031180;28;20384;-63
2022/06/24 00:51:20;;;;;;;15.15;11.75;;;23.90;99.90;;;;;;5045759;28;20119;-64
2022/06/24 00:53:54;;;;;;;15.00;11.55;;;23.80;99.90;;;;;;5038436;28;20416;-64
2022/06/24 00:56:24;;;;;;;15.88;11.40;;;23.80;99.90;;;;;;5042595;28;20041;-63
2022/06/24 00:58:58;;;;;;;15.48;11.13;;;23.80;99.90;;;;;;5038536;28;20029;-63
2022/06/24 01:01:32;;;;;;;17.00;12.15;;;23.70;99.90;;;;;;5035605;28;20099;-63
2022/06/24 01:03:59;;;;;;;16.95;12.02;;;23.70;99.90;;;;;;5034501;28;20466;-63
2022/06/24 01:06:28;;;;;;;13.43;11.55;;;23.70;99.90;;;;;;5034715;28;20156;-63
2022/06/24 01:08:55;;;;;;;13.93;11.68;;;23.60;99.90;;;;;;5030244;28;20082;-63
2022/06/24 01:11:29;;;;;;;17.25;11.70;;;23.60;99.90;;;;;;5036456;28;20136;-65
2022/06/24 01:13:56;;;;;;;17.38;11.77;;;23.60;99.90;;;;;;5034377;28;20094;-64
2022/06/24 01:16:23;;;;;;;14.77;12.55;;;23.60;99.90;;;;;;5034764;28;20042;-64
2022/06/24 01:18:54;;;;;;;20.25;12.23;;;23.50;99.90;;;;;;5035964;28;20381;-64
2022/06/24 01:21:40;;;;;;;15.32;12.23;;;23.50;99.90;;;;;;5021640;28;20042;-64
2022/06/24 01:24:19;;;;;;;15.45;12.15;;;23.50;99.90;;;;;;5019041;28;20461;-64
2022/06/24 01:26:50;;;;;;;14.60;13.02;;;23.50;99.90;;;;;;4999934;28;20052;-65
2022/06/24 01:29:17;;;;;;;14.65;12.88;;;23.50;99.90;;;;;;4996308;28;20044;-63
2022/06/24 01:31:45;;;;;;;16.58;13.93;;;23.40;99.90;;;;;;5034876;28;20040;-65
2022/06/24 01:34:11;;;;;;;20.90;16.48;;;23.30;99.90;;;;;;5031508;28;20771;-64
2022/06/24 01:36:38;;;;;;;25.02;17.20;;;23.30;99.90;;;;;;5040732;28;20041;-63
2022/06/24 01:39:05;;;;;;;18.75;16.63;;;23.20;99.90;;;;;;5047072;28;20072;-64
2022/06/24 01:41:31;;;;;;;21.27;18.58;;;23.10;99.90;;;;;;5026893;28;20051;-65
2022/06/24 01:43:56;;;;;;;21.58;18.42;;;23.00;99.90;;;;;;5045926;28;20041;-64
2022/06/24 01:46:22;;;;;;;20.65;17.60;;;22.90;99.90;;;;;;5043881;28;20033;-64
2022/06/24 01:48:48;;;;;;;21.00;18.90;;;22.90;99.90;;;;;;5030693;28;20030;-63
2022/06/24 01:51:15;;;;;;;21.95;17.88;;;22.80;99.90;;;;;;5050618;28;20509;-63
2022/06/24 01:53:42;;;;;;;20.30;17.20;;;22.80;99.90;;;;;;5031609;28;20037;-64
2022/06/24 01:56:08;;;;;;;20.55;18.20;;;22.80;99.90;;;;;;5052879;28;20098;-64
2022/06/24 01:58:34;;;;;;;21.08;18.75;;;22.80;99.90;;;;;;5046615;28;20395;-63
2022/06/24 02:01:00;;;;;;;21.15;17.77;;;22.70;99.90;;;;;;5043071;28;20033;-64
2022/06/24 02:03:28;;;;;;;21.92;18.17;;;22.80;99.90;;;;;;5044424;28;20071;-64
2022/06/24 02:06:04;;;;;;;22.67;19.60;;;22.80;99.90;;;;;;5042664;28;20470;-64
2022/06/24 02:08:30;;;;;;;21.48;19.38;;;22.70;99.90;;;;;;5049469;28;20055;-63
2022/06/24 02:13:47;;;;;;;25.13;18.85;;;22.60;99.90;;;;;;5050849;28;20789;-63
2022/06/24 02:16:13;;;;;;;20.88;18.73;;;22.60;99.90;;;;;;5032403;28;20040;-64
2022/06/24 02:18:40;;;;;;;22.38;19.85;;;22.60;99.90;;;;;;5050058;28;20454;-64
2022/06/24 02:21:06;;;;;;;22.30;19.27;;;22.50;99.90;;;;;;5041085;28;20045;-64
2022/06/24 02:23:34;;;;;;;24.02;20.52;;;22.50;99.90;;;;;;5047434;28;20038;-63
2022/06/24 02:26:00;;;;;;;22.40;19.92;;;22.50;99.90;;;;;;5021916;28;20068;-64
2022/06/24 02:28:25;;;;;;;23.27;20.33;;;22.50;99.90;;;;;;5053845;28;20111;-63
2022/06/24 02:30:54;;;;;;;22.08;19.77;;;22.50;99.90;;;;;;5041050;28;20072;-63
2022/06/24 02:33:20;;;;;;;22.38;19.55;;;22.50;99.90;;;;;;5037156;28;20036;-64
2022/06/24 02:35:47;;;;;;;23.50;20.55;;;22.40;99.90;;;;;;5046111;28;20446;-63
2022/06/24 02:38:13;;;;;;;21.90;18.30;;;22.50;99.90;;;;;;5052112;28;20033;-66
2022/06/24 02:40:49;;;;;;;22.00;18.13;;;22.40;99.90;;;;;;5049304;28;20063;-63
2022/06/24 02:43:28;;;;;;;22.65;17.98;;;22.40;99.90;;;;;;5047012;28;20037;-63
2022/06/24 02:46:00;;;;;;;23.02;19.60;;;22.50;99.90;;;;;;5049919;28;20458;-63
2022/06/24 02:48:28;;;;;;;21.70;19.48;;;22.50;99.90;;;;;;5057526;28;20110;-63
2022/06/24 02:50:59;;;;;;;25.90;21.63;;;22.50;99.90;;;;;;5051573;28;20068;-66
2022/06/24 02:53:25;;;;;;;29.15;22.73;;;22.50;99.90;;;;;;5037124;28;20036;-65
2022/06/24 02:55:57;;;;;;;26.33;23.58;;;22.40;99.90;;;;;;5049403;28;20286;-66
2022/06/24 02:58:23;;;;;;;23.88;21.25;;;22.30;99.90;;;;;;5041774;28;20036;-65
2022/06/24 03:00:50;;;;;;;27.42;21.85;;;22.20;99.90;;;;;;5050158;28;20077;-64
2022/06/24 03:03:19;;;;;;;24.25;21.67;;;22.10;99.90;;;;;;5051022;28;20481;-64
2022/06/24 03:05:45;;;;;;;30.73;23.08;;;22.20;99.90;;;;;;5052683;28;20099;-65
2022/06/24 03:08:12;;;;;;;23.10;20.70;;;22.00;99.90;;;;;;5048073;28;20115;-65
2022/06/24 03:10:38;;;;;;;24.70;20.70;;;22.00;99.90;;;;;;5047610;28;20045;-65
2022/06/24 03:13:04;;;;;;;25.17;21.25;;;22.00;99.90;;;;;;5048582;28;20045;-64
2022/06/24 03:15:30;;;;;;;27.45;22.42;;;22.00;99.90;;;;;;5051198;28;20467;-64
2022/06/24 03:17:57;;;;;;;24.40;20.10;;;22.00;99.90;;;;;;5050424;28;20037;-64
2022/06/24 03:20:23;;;;;;;22.70;20.17;;;22.00;99.90;;;;;;5049542;28;20056;-64
2022/06/24 03:22:49;;;;;;;24.08;20.45;;;22.00;99.90;;;;;;5045824;28;20045;-64
2022/06/24 03:25:14;;;;;;;24.63;16.58;;;22.00;99.90;;;;;;5049368;28;20106;-64
2022/06/24 03:27:40;;;;;;;18.60;15.23;;;22.00;99.90;;;;;;5048657;28;20359;-64
2022/06/24 03:30:08;;;;;;;15.30;12.57;;;22.00;99.90;;;;;;5051171;28;20037;-63
2022/06/24 03:32:34;;;;;;;15.68;11.35;;;21.80;99.90;;;;;;5052716;28;20040;-63
2022/06/24 03:35:01;;;;;;;13.07;9.65;;;21.70;99.90;;;;;;5047386;28;20443;-63
2022/06/24 03:37:28;;;;;;;11.93;10.52;;;21.60;99.90;;;;;;5047886;28;20037;-65
2022/06/24 03:39:54;;;;;;;12.38;10.18;;;21.50;99.90;;;;;;5027975;28;20060;-63
2022/06/24 03:42:20;;;;;;;12.32;9.35;;;21.50;99.90;;;;;;5044667;28;20037;-64
2022/06/24 03:44:46;;;;;;;13.05;9.00;;;21.40;99.90;;;;;;5031685;28;20033;-64
2022/06/24 03:47:12;;;;;;;11.18;9.43;;;21.30;99.90;;;;;;5049704;28;20126;-64
2022/06/24 03:49:41;;;;;;;10.73;7.35;;;21.20;99.90;;;;;;5050068;28;20406;-63
2022/06/24 03:52:07;;;;;;;7.22;6.40;;;21.10;99.90;;;;;;5028928;28;20102;-63
2022/06/24 03:54:33;;;;;;;11.15;6.30;;;21.00;99.90;;;;;;5047579;28;20464;-63
2022/06/24 03:56:59;;;;;;;8.30;5.60;;;21.00;99.90;;;;;;5037765;28;20526;-63
2022/06/24 03:59:24;;;;;;;9.65;5.38;;;21.00;99.90;;;;;;5049852;28;20132;-64
2022/06/24 04:01:50;;;;;;;10.27;5.00;;;20.90;99.90;;;;;;5048112;28;20072;-63
2022/06/24 04:04:16;;;;;;;9.00;4.72;;;20.90;99.90;;;;;;5051733;28;20539;-63
2022/06/24 04:06:41;;;;;;;8.45;5.32;;;20.80;99.90;;;;;;5052651;28;20048;-63
2022/06/24 04:09:07;;;;;;;7.80;4.28;;;20.80;99.90;;;;;;5047185;28;20102;-62
2022/06/24 04:11:33;;;;;;;9.52;4.35;;;20.80;99.90;;;;;;5049963;28;20041;-62
2022/06/24 04:14:02;;;;;;;9.13;4.28;;;20.70;99.90;;;;;;5048006;28;20513;-62
2022/06/24 04:16:28;;;;;;;7.82;4.22;;;20.60;99.90;;;;;;5049045;28;20747;-62
2022/06/24 04:18:54;;;;;;;11.55;5.57;;;20.60;99.90;;;;;;5046628;28;20045;-61
2022/06/24 04:21:21;;;;;;;10.07;5.63;;;20.60;99.90;;;;;;5036109;28;20129;-62
2022/06/24 04:23:51;;;;;;;10.68;5.20;;;20.60;99.90;;;;;;5035585;28;20462;-62
2022/06/24 04:26:20;;;;;;;13.43;7.07;;;20.60;99.90;;;;;;5032815;28;20143;-63
2022/06/24 04:28:46;;;;;;;10.13;6.68;;;20.70;99.90;;;;;;5036553;28;20358;-63
2022/06/24 04:31:18;;;;;;;8.07;5.57;;;20.70;99.90;;;;;;5039014;28;20569;-63
2022/06/24 04:33:44;;;;;;;8.85;6.57;;;20.80;99.90;;;;;;5023739;28;20041;-63
2022/06/24 04:36:11;;;;;;;9.38;6.00;;;20.80;99.90;;;;;;5035591;28;20442;-62
2022/06/24 04:38:37;;;;;;;9.38;7.15;;;20.90;99.90;;;;;;5007381;28;20053;-62
2022/06/24 04:41:13;;;;;;;8.60;6.97;;;20.90;99.90;;;;;;5033583;28;20045;-63
2022/06/24 04:43:38;;;;;;;10.40;7.50;;;21.00;99.90;;;;;;5036290;28;20041;-63
2022/06/24 04:46:04;;;;;;;10.38;7.85;;;21.00;99.90;;;;;;5036369;28;20044;-62
2022/06/24 04:48:32;;;;;;;9.27;7.35;;;21.00;99.90;;;;;;5008552;28;20360;-63
2022/06/24 04:50:57;;;;;;;10.73;7.70;;;21.00;99.90;;;;;;5040398;28;20045;-63
2022/06/24 04:53:23;;;;;;;11.85;8.20;;;21.00;99.90;;;;;;5028304;28;20052;-63
2022/06/24 04:55:50;;;;;;;12.05;8.43;;;21.10;99.90;;;;;;5038715;28;20109;-62
2022/06/24 04:58:15;;;;;;;10.07;8.20;;;21.10;99.90;;;;;;5030547;28;20044;-62
2022/06/24 05:00:41;;;;;;;11.68;8.45;;;21.10;99.90;;;;;;5039696;28;20356;-62
2022/06/24 05:03:07;;;;;;;10.02;8.48;;;21.10;99.90;;;;;;5043544;28;20064;-64
2022/06/24 05:05:32;;;;;;;10.15;8.10;;;21.00;99.90;;;;;;5024216;28;20037;-63
2022/06/24 05:07:58;;;;;;;10.55;8.10;;;21.00;99.90;;;;;;5035557;28;20366;-63
2022/06/24 05:10:23;;;;;;;12.48;7.78;;;21.10;99.90;;;;;;5015346;28;20071;-62
2022/06/24 05:12:49;;;;;;;9.65;7.22;;;21.00;99.90;;;;;;5034991;28;20169;-63
2022/06/24 05:15:15;;;;;;;9.65;7.28;;;21.00;99.90;;;;;;5023465;28;20091;-63
2022/06/24 05:17:40;;;;;;;10.68;7.00;;;21.10;99.90;;;;;;5046172;28;20041;-63
2022/06/24 05:20:06;;;;;;;7.40;6.03;;;21.10;99.90;;;;;;5040522;28;20529;-63
2022/06/24 05:22:33;;;;;;;7.03;5.80;;;21.10;99.90;;;;;;5029897;28;20055;-62
2022/06/24 05:24:59;;;;;;;8.90;5.53;;;21.10;99.90;;;;;;5045096;28;20029;-62
2022/06/24 05:27:25;;;;;;;9.18;5.65;;;21.10;99.90;;;;;;5028153;28;20045;-62
2022/06/24 05:29:50;;;;;;;14.00;6.40;;;21.10;99.90;;;;;;5034016;28;20069;-62
2022/06/24 05:32:16;;;;;;;14.60;6.75;;;21.10;99.90;;;;;;5040345;28;20037;-62
2022/06/24 05:34:43;;;;;;;13.20;6.50;;;21.10;99.90;;;;;;5036876;28;20381;-63
2022/06/24 05:37:11;;;;;;;10.80;6.22;;;21.10;99.90;;;;;;5007686;28;20060;-62
2022/06/24 05:39:37;;;;;;;7.25;5.35;;;21.00;99.90;;;;;;5036707;28;20045;-61
2022/06/24 05:42:03;;;;;;;7.90;5.53;;;21.10;99.90;;;;;;5035151;28;20446;-61
2022/06/24 05:44:28;;;;;;;9.55;5.70;;;21.00;99.90;;;;;;5036443;28;20044;-61
2022/06/24 05:46:55;;;;;;;7.90;5.35;;;21.00;99.90;;;;;;5035751;28;20032;-62
2022/06/24 05:49:21;;;;;;;8.18;4.68;;;21.00;99.90;;;;;;5004926;28;20102;-62
2022/06/24 05:51:46;;;;;;;8.52;5.22;;;20.90;99.90;;;;;;5032258;28;20534;-63
2022/06/24 05:56:58;;;;;;;8.15;5.80;;;20.90;99.90;;;;;;5034202;28;20164;-61
2022/06/24 05:59:23;;;;;;;7.57;5.55;;;20.90;99.90;;;;;;5016679;28;20120;-61
2022/06/24 06:01:49;;;;;;;7.63;5.78;;;20.80;99.90;;;;;;5032758;28;20051;-63
2022/06/24 06:04:15;;;;;;;8.27;6.00;;;20.90;99.90;;;;;;5029615;28;20454;-61
2022/06/24 06:06:41;;;;;;;8.07;5.82;;;20.90;99.90;;;;;;5029998;28;20517;-62
2022/06/24 06:09:07;;;;;;;8.40;6.05;;;20.90;99.90;;;;;;5022435;28;20036;-61
2022/06/24 06:11:33;;;;;;;10.43;5.85;;;20.80;99.90;;;;;;5027461;28;20041;-60
2022/06/24 06:14:00;;;;;;;9.18;5.88;;;20.80;99.90;;;;;;5035576;28;20041;-62
2022/06/24 06:16:27;;;;;;;6.38;5.32;;;20.80;99.90;;;;;;5006047;28;20111;-62
2022/06/24 06:18:52;;;;;;;6.93;5.35;;;20.80;99.90;;;;;;5029575;28;20343;-62
2022/06/24 06:21:18;;;;;;;7.10;5.45;;;20.80;99.90;;;;;;5042051;28;20504;-62
2022/06/24 06:23:45;;;;;;;8.00;5.45;;;20.90;99.90;;;;;;5049150;28;20056;-63
2022/06/24 06:26:11;;;;;;;9.00;5.88;;;20.90;99.90;;;;;;5041920;28;20044;-62
2022/06/24 06:28:38;;;;;;;8.18;5.90;;;20.90;99.90;;;;;;5046605;28;20037;-61
2022/06/24 06:31:04;;;;;;;9.13;6.78;;;20.80;99.90;;;;;;5051269;28;20442;-62
2022/06/24 06:33:34;;;;;;;10.27;6.63;;;20.80;99.90;;;;;;5045187;28;20045;-61
2022/06/24 06:36:09;;;;;;;11.63;6.60;;;20.80;99.90;;;;;;5045144;28;20599;-61
2022/06/24 06:38:35;;;;;;;9.70;6.30;;;20.90;99.90;;;;;;5022598;28;20041;-60
2022/06/24 06:41:01;;;;;;;11.30;7.03;;;20.80;99.90;;;;;;5050020;28;20041;-60
2022/06/24 06:43:28;;;;;;;12.57;6.32;;;20.80;99.90;;;;;;5049584;28;20040;-60
2022/06/24 06:45:56;;;;;;;7.68;6.13;;;20.90;99.90;;;;;;5057274;28;20037;-61
2022/06/24 06:48:23;;;;;;;7.68;6.03;;;20.90;99.90;;;;;;5061272;28;20039;-60
2022/06/24 06:50:54;;;;;;;8.00;6.43;;;20.90;99.90;;;;;;5048907;28;20037;-61
2022/06/24 06:53:20;;;;;;;16.00;7.18;;;21.00;99.90;;;;;;5049475;28;20051;-61
2022/06/24 06:55:46;;;;;;;9.20;6.22;;;21.00;99.90;;;;;;5053799;28;20037;-61
2022/06/24 06:58:11;;;;;;;11.43;6.05;;;20.90;99.90;;;;;;5057268;28;20362;-61
2022/06/24 07:00:37;;;;;;;7.57;5.72;;;20.90;99.90;;;;;;5022632;28;20045;-62
2022/06/24 07:03:03;;;;;;;9.00;5.93;;;20.90;99.90;;;;;;5057062;28;20037;-61
2022/06/24 07:05:28;;;;;;;6.82;6.10;;;20.90;99.90;;;;;;5056361;28;20037;-61
2022/06/24 07:07:54;;;;;;;9.00;5.55;;;20.90;99.90;;;;;;5041077;28;20040;-61
2022/06/24 07:10:20;;;;;;;7.70;5.60;;;20.90;99.90;;;;;;5035340;28;20032;-62
2022/06/24 07:12:46;;;;;;;6.38;5.45;;;20.90;99.90;;;;;;5038721;28;20033;-62
2022/06/24 07:15:14;;;;;;;6.15;5.00;;;21.00;99.90;;;;;;5057088;28;20148;-61
2022/06/24 07:17:40;;;;;;;6.53;4.80;;;21.00;99.90;;;;;;5044101;28;20120;-61
2022/06/24 07:20:07;;;;;;;7.13;4.85;;;21.00;99.90;;;;;;5008411;28;20060;-62
2022/06/24 07:22:32;;;;;;;7.05;5.07;;;21.10;99.90;;;;;;5037824;28;20056;-62
2022/06/24 07:24:58;;;;;;;8.57;4.85;;;21.00;99.90;;;;;;5056912;28;20040;-62
2022/06/24 07:27:24;;;;;;;7.43;5.07;;;21.10;99.90;;;;;;5056961;28;20032;-62
2022/06/24 07:29:49;;;;;;;7.65;4.50;;;21.10;99.90;;;;;;5056914;28;20043;-62
2022/06/24 07:32:15;;;;;;;6.30;4.43;;;21.20;99.90;;;;;;5046307;28;20041;-61
2022/06/24 07:34:41;;;;;;;7.30;5.20;;;21.20;99.90;;;;;;5036734;28;20106;-63
2022/06/24 07:37:07;;;;;;;6.53;4.95;;;21.30;99.90;;;;;;5036436;28;20566;-62
2022/06/24 07:39:33;;;;;;;7.82;4.60;;;21.30;99.90;;;;;;5036755;28;20045;-62
2022/06/24 07:41:58;;;;;;;12.45;7.10;;;21.30;99.90;;;;;;5036393;28;20037;-62
2022/06/24 07:44:24;;;;;;;10.45;6.00;;;21.30;99.90;;;;;;5036482;28;20463;-62
2022/06/24 07:46:50;;;;;;;9.45;5.13;;;21.30;99.90;;;;;;5036673;28;20119;-60
2022/06/24 07:49:17;;;;;;;8.40;4.70;;;21.40;99.90;;;;;;5036569;28;20034;-62
2022/06/24 07:51:43;;;;;;;10.82;5.78;;;21.30;99.90;;;;;;5036054;28;20077;-60
2022/06/24 07:54:09;;;;;;;14.02;8.10;;;21.30;99.90;;;;;;5036629;28;20056;-62
2022/06/24 07:59:20;;;;;;;7.88;5.38;;;21.20;99.90;;;;;;5036514;28;20103;-60
2022/06/24 08:01:46;;;;;;;8.75;5.60;;;21.30;99.90;;;;;;5036288;28;20041;-61
2022/06/24 08:04:12;;;;;;;7.22;5.35;;;21.20;99.90;;;;;;5036047;28;20055;-61
2022/06/24 08:06:40;;;;;;;8.65;4.90;;;21.20;99.90;;;;;;5036334;28;20037;-60
2022/06/24 08:09:06;;;;;;;6.20;4.80;;;21.10;99.90;;;;;;5036271;28;20056;-60
2022/06/24 08:11:32;;;;;;;8.10;5.28;;;21.00;99.90;;;;;;5035909;28;20041;-60
2022/06/24 08:13:58;;;;;;;6.60;5.20;;;21.10;99.90;;;;;;5036141;28;20106;-62
2022/06/24 08:16:24;;;;;;;7.50;5.30;;;21.00;99.90;;;;;;5035837;28;20041;-60
2022/06/24 08:18:51;;;;;;;8.38;6.15;;;21.00;99.90;;;;;;5039833;28;20044;-62
2022/06/24 08:21:16;;;;;;;11.93;5.65;;;21.00;99.90;;;;;;5055862;28;20129;-61
2022/06/24 08:23:42;;;;;;;15.88;6.63;;;20.90;99.90;;;;;;5055736;28;20044;-61
2022/06/24 08:26:08;;;;;;;13.65;4.85;;;20.80;99.90;;;;;;5055730;28;20120;-61
2022/06/24 08:28:33;;;;;;;8.85;4.38;;;20.60;99.90;;;;;;5055684;28;20116;-61
2022/06/24 08:30:59;;;;;;;8.15;3.60;;;20.40;99.90;;;;;;5071210;28;20032;-63
2022/06/24 08:33:25;;;;;;;6.20;3.90;;;20.30;99.90;;;;;;5047593;28;20095;-62
2022/06/24 08:35:51;;;;;;;6.97;3.70;;;20.20;99.90;;;;;;5044525;28;20037;-61
2022/06/24 08:38:20;;;;;;;6.88;3.42;;;20.10;99.90;;;;;;5022205;28;20047;-61
2022/06/24 08:40:50;;;;;;;6.88;3.15;;;20.10;99.90;;;;;;5054942;28;20037;-61
2022/06/24 08:43:19;;;;;;;5.75;2.70;;;20.10;99.90;;;;;;5037855;28;20033;-61
2022/06/24 08:45:46;;;;;;;5.78;3.42;;;20.00;99.90;;;;;;5054509;28;20051;-62
2022/06/24 08:48:12;;;;;;;5.88;3.20;;;20.00;99.90;;;;;;5033656;28;20059;-62
2022/06/24 08:50:38;;;;;;;9.45;3.35;;;20.00;99.90;;;;;;5043893;28;20353;-61
2022/06/24 08:53:09;;;;;;;7.88;3.25;;;19.80;99.90;;;;;;5049533;28;20068;-61
2022/06/24 08:55:37;;;;;;;6.68;3.10;;;19.90;99.90;;;;;;5035015;28;20409;-60
2022/06/24 08:58:07;;;;;;;5.63;3.08;;;19.80;99.90;;;;;;5001237;28;20116;-61
2022/06/24 09:00:33;;;;;;;5.53;3.40;;;19.80;99.90;;;;;;5001356;28;20084;-60
2022/06/24 09:02:59;;;;;;;5.78;3.47;;;19.80;99.90;;;;;;5034515;28;20373;-60
2022/06/24 09:05:28;;;;;;;7.47;4.55;;;19.90;99.90;;;;;;5051521;28;20037;-62
2022/06/24 09:08:08;;;;;;;8.95;4.75;;;19.90;99.90;;;;;;5027348;28;20083;-60
2022/06/24 09:10:37;;;;;;;12.32;3.92;;;20.00;99.90;;;;;;5051779;28;20076;-61
2022/06/24 09:13:03;;;;;;;6.70;3.72;;;20.00;99.90;;;;;;5054081;28;20387;-62
2022/06/24 09:15:32;;;;;;;8.68;4.38;;;20.10;99.90;;;;;;5055336;28;20661;-62
2022/06/24 09:17:59;;;;;;;6.30;4.32;;;20.10;99.90;;;;;;5036261;28;20037;-61
2022/06/24 09:20:28;;;;;;;8.48;4.38;;;20.20;99.90;;;;;;5035786;28;20405;-61
2022/06/24 09:23:09;;;;;;;8.70;4.32;;;20.20;99.90;;;;;;5033993;28;20072;-60
2022/06/24 09:25:46;;;;;;;9.45;4.72;;;20.20;99.90;;;;;;5034882;28;20067;-62
2022/06/24 09:28:23;;;;;;;7.93;4.47;;;20.20;99.90;;;;;;5034685;28;20355;-61
2022/06/24 09:30:49;;;;;;;7.20;4.00;;;20.30;99.90;;;;;;5034294;28;20429;-61
2022/06/24 09:33:17;;;;;;;6.88;4.25;;;20.20;99.90;;;;;;5034236;28;20038;-61
2022/06/24 09:35:43;;;;;;;4.20;3.28;;;20.20;99.90;;;;;;5017347;28;20049;-61
2022/06/24 09:38:09;;;;;;;8.10;3.72;;;20.20;99.90;;;;;;5017556;28;20053;-63
2022/06/24 09:40:35;;;;;;;6.43;3.40;;;20.20;99.90;;;;;;5014796;28;20042;-62
2022/06/24 09:43:06;;;;;;;9.10;3.50;;;20.20;99.90;;;;;;5028824;28;20048;-62
2022/06/24 09:45:46;;;;;;;9.85;4.05;;;20.30;99.90;;;;;;5016874;28;20047;-60
2022/06/24 09:48:30;;;;;;;5.15;3.58;;;20.30;99.90;;;;;;5034176;28;20045;-62
2022/06/24 09:51:04;;;;;;;6.15;3.55;;;20.30;99.90;;;;;;5034342;28;20123;-61
2022/06/24 09:53:33;;;;;;;4.10;3.17;;;20.30;99.90;;;;;;5034413;28;20132;-62
2022/06/24 09:55:59;;;;;;;7.38;3.70;;;20.40;99.90;;;;;;5022145;28;20046;-61
2022/06/24 09:58:25;;;;;;;5.78;3.63;;;20.40;99.90;;;;;;5015738;28;20042;-61
2022/06/24 10:00:51;;;;;;;5.78;4.05;;;20.50;99.90;;;;;;5013736;28;20041;-61
2022/06/24 10:03:18;;;;;;;5.72;3.58;;;20.60;99.90;;;;;;5034408;28;20037;-61
2022/06/24 10:05:51;;;;;;;6.65;4.50;;;20.60;99.90;;;;;;5016962;28;20041;-61
2022/06/24 10:08:21;;;;;;;5.97;3.67;;;20.60;99.90;;;;;;5016753;28;20382;-62
2022/06/24 10:10:50;;;;;;;5.65;3.85;;;20.70;99.90;;;;;;5028648;28;20048;-62
2022/06/24 10:13:45;;;;;;;5.18;3.80;;;20.70;99.90;;;;;;5032563;28;20046;-61
2022/06/24 10:16:11;;;;;;;6.43;4.43;;;20.80;99.90;;;;;;5029480;28;20064;-62
2022/06/24 10:18:40;;;;;;;6.80;4.15;;;20.80;99.90;;;;;;5037358;28;20060;-61
2022/06/24 10:21:09;;;;;;;7.15;3.78;;;20.80;99.90;;;;;;5037870;28;20076;-62
2022/06/24 10:24:09;;;;;;;4.85;3.30;;;20.70;99.90;;;;;;5038579;28;20037;-61
2022/06/24 10:26:38;;;;;;;5.97;3.50;;;20.70;99.90;;;;;;5042938;28;20040;-62
2022/06/24 10:29:03;;;;;;;8.00;3.80;;;20.70;99.90;;;;;;5057608;28;20477;-61
2022/06/24 10:31:54;;;;;;;4.93;3.22;;;20.80;99.90;;;;;;5046060;28;20033;-61
2022/06/24 10:34:22;;;;;;;6.07;3.65;;;20.80;99.90;;;;;;5030858;28;20106;-62
2022/06/24 10:36:52;;;;;;;7.82;4.18;;;21.00;99.90;;;;;;5037686;28;20470;-62
2022/06/24 10:39:20;;;;;;;7.60;4.55;;;21.00;99.90;;;;;;5046708;28;20049;-62
2022/06/24 10:41:46;;;;;;;6.57;4.60;;;21.00;99.90;;;;;;5034051;28;20190;-62
2022/06/24 10:44:25;;;;;;;7.38;5.07;;;20.90;99.90;;;;;;5026809;28;20103;-61
2022/06/24 10:47:10;;;;;;;9.88;5.55;;;21.00;99.90;;;;;;5032212;28;20025;-62
2022/06/24 10:49:51;;;;;;;8.93;6.15;;;20.90;99.90;;;;;;5039786;28;20052;-62
2022/06/24 10:52:38;;;;;;;9.82;5.60;;;20.90;99.90;;;;;;5029884;28;20041;-61
2022/06/24 10:55:16;;;;;;;8.32;6.93;;;20.90;99.90;;;;;;5000176;28;20077;-62
2022/06/24 10:57:53;;;;;;;10.20;6.60;;;21.00;99.90;;;;;;5019539;28;20054;-61
2022/06/24 11:00:23;;;;;;;11.45;7.55;;;21.00;99.90;;;;;;5034541;28;20480;-62
2022/06/24 11:02:52;;;;;;;10.25;7.90;;;21.10;99.90;;;;;;5047301;28;20099;-62
2022/06/24 11:05:30;;;;;;;8.77;7.40;;;21.10;99.90;;;;;;5051048;28;20394;-61
2022/06/24 11:07:56;;;;;;;10.40;8.15;;;21.30;99.90;;;;;;5042943;28;20139;-62
2022/06/24 11:10:31;;;;;;;10.27;8.32;;;21.30;99.90;;;;;;5039900;28;20136;-62
2022/06/24 11:12:59;;;;;;;9.88;7.60;;;21.50;99.90;;;;;;5042185;28;20044;-62
2022/06/24 11:15:38;;;;;;;11.88;8.63;;;21.60;99.90;;;;;;5044854;28;20377;-61
2022/06/24 11:18:15;;;;;;;10.30;8.73;;;21.80;99.90;;;;;;5048009;28;20045;-62
2022/06/24 11:20:42;;;;;;;12.27;8.75;;;21.90;99.90;;;;;;5048863;28;20132;-64
2022/06/24 11:23:12;;;;;;;9.07;8.07;;;22.10;99.90;;;;;;5046517;28;20603;-62
2022/06/24 11:25:40;;;;;;;15.45;9.88;;;22.20;99.90;;;;;;5048211;28;20047;-62
2022/06/24 11:28:21;;;;;;;14.80;9.50;;;22.40;99.90;;;;;;5052709;28;20040;-63
2022/06/24 11:30:47;;;;;;;12.75;10.20;;;22.50;99.90;;;;;;5052528;28;20041;-63
2022/06/24 11:33:13;;;;;;;10.80;9.65;;;22.50;99.90;;;;;;5061534;28;20487;-63
2022/06/24 11:35:39;;;;;;;12.75;10.25;;;22.70;99.90;;;;;;5056873;28;20132;-64
2022/06/24 11:38:07;;;;;;;11.30;9.65;;;22.70;99.90;;;;;;5052526;28;20068;-62
2022/06/24 11:40:33;;;;;;;13.02;10.07;;;22.70;99.90;;;;;;5053873;28;20045;-63
2022/06/24 11:43:11;;;;;;;13.05;10.70;;;22.80;99.90;;;;;;5058828;28;20047;-63
2022/06/24 11:45:42;;;;;;;12.82;10.00;;;22.80;99.90;;;;;;5035493;28;20458;-63
2022/06/24 11:48:12;;;;;;;11.82;9.20;;;22.90;99.90;;;;;;5054108;28;20033;-63
2022/06/24 11:50:39;;;;;;;9.90;8.85;;;23.00;99.90;;;;;;5054298;28;20033;-62
2022/06/24 11:53:06;;;;;;;9.63;8.73;;;23.20;99.90;;;;;;5049876;28;20114;-62
2022/06/24 11:55:37;;;;;;;11.82;9.60;;;23.20;99.90;;;;;;5047294;28;20110;-64
2022/06/24 11:58:05;;;;;;;11.35;9.73;;;23.30;99.90;;;;;;5052250;28;20045;-64
2022/06/24 12:00:34;;;;;;;12.27;9.50;;;23.40;99.90;;;;;;5046491;28;20100;-62
2022/06/24 12:03:01;;;;;;;12.45;9.82;;;23.40;99.90;;;;;;5053374;28;20116;-62
2022/06/24 12:05:28;;;;;;;12.25;9.63;;;23.40;99.90;;;;;;5050462;28;20091;-62
2022/06/24 12:07:55;;;;;;;13.25;10.38;;;23.40;99.90;;;;;;5048909;28;20041;-63
2022/06/24 12:10:21;;;;;;;16.90;9.70;;;23.50;99.90;;;;;;5045763;28;20049;-63
2022/06/24 12:13:07;;;;;;;12.07;10.38;;;23.70;99.90;;;;;;5036354;28;20040;-63
2022/06/24 12:15:39;;;;;;;13.75;9.77;;;23.90;99.90;;;;;;5039489;28;20037;-63
2022/06/24 12:18:22;;;;;;;11.65;10.05;;;23.90;99.90;;;;;;5046074;28;20090;-63
2022/06/24 12:21:07;;;;;;;9.68;8.68;;;23.90;99.90;;;;;;5027930;28;20044;-64
2022/06/24 12:23:35;;;;;;;13.55;11.57;;;24.00;99.90;;;;;;5053911;28;20037;-63
2022/06/24 12:26:06;;;;;;;11.38;9.60;;;23.90;99.90;;;;;;5047028;28;20048;-62
2022/06/24 12:28:32;;;;;;;12.70;10.00;;;23.90;99.90;;;;;;5050842;28;20045;-63
2022/06/24 12:30:59;;;;;;;13.95;11.13;;;23.80;99.90;;;;;;5048071;28;20053;-62
2022/06/24 12:33:26;;;;;;;13.57;9.90;;;23.90;99.90;;;;;;5051944;28;20520;-63
2022/06/24 12:36:11;;;;;;;11.40;10.38;;;23.90;99.90;;;;;;5028341;28;20091;-62
2022/06/24 12:38:57;;;;;;;12.27;11.07;;;24.00;99.90;;;;;;5044789;28;20120;-63
2022/06/24 12:41:23;;;;;;;15.98;12.48;;;24.00;99.90;;;;;;5024750;28;20347;-61
2022/06/24 12:43:57;;;;;;;14.98;13.43;;;23.90;99.90;;;;;;5042404;28;20102;-64
2022/06/24 12:52:38;;;;;;;15.68;13.05;;;24.10;99.90;;;;;;5044326;28;20042;-63
2022/06/24 12:55:09;;;;;;;16.73;14.57;;;24.40;99.90;;;;;;5051668;28;20068;-63
2022/06/24 12:57:36;;;;;;;18.58;16.83;;;24.60;99.90;;;;;;5048875;28;20036;-63
2022/06/24 13:00:07;;;;;;;16.83;15.07;;;24.70;99.90;;;;;;5058779;28;20129;-62